MSC Nuria — 3ESE2 — position and weather

sailwx.info

Track history (hours):
 
Tides and Currents Weather Stations Pressure Air Temp Water Temp Dewpoint Dewpoint Depression Visibility Wind Speed Wind Dir Waves Ship Positions

MSC Nuria

Last reported at 2016-Nov-29 17:29 UTC. Time now 2016-Dec-07 16:24 UTC.
Position N 22°34' E 114°17'.

Length 275 m; draft 10 m.

Type: Ship (hazmat cat A). MMSI: 370272977.

Date/timePositionNaut miles runAvg speedWind from/ knotsBaromVisibWave heightAir tempDewpointWater temp
2016-Nov-29 17:29N 22°34' E 114°17'2 1.9
2016-Nov-29 16:29N 22°34' E 114°16'0 0.0
2016-Nov-29 15:29N 22°34' E 114°16'0 0.0
2016-Nov-29 14:29N 22°34' E 114°16'0 0.0
2016-Nov-29 13:22N 22°34' E 114°16'0 0.0
2016-Nov-29 12:28N 22°34' E 114°16'0 0.0
2016-Nov-29 11:27N 22°34' E 114°16'0 0.0
2016-Nov-29 10:33N 22°34' E 114°16'0 0.0
2016-Nov-29 09:26N 22°34' E 114°16'0 0.0
2016-Nov-29 08:32N 22°34' E 114°16'0 0.0
2016-Nov-29 07:32N 22°34' E 114°16'0 0.0
2016-Nov-29 06:31N 22°34' E 114°16'0 0.1
2016-Nov-29 05:33N 22°34' E 114°16'23015.3
2016-Nov-28 14:33N 23°52' E 118°11'2120.5
2016-Nov-28 13:33N 24°11' E 118°19'1413.7
2016-Nov-28 12:33N 24°21' E 118°09'9 8.9
2016-Nov-28 11:33N 24°26' E 118°01'1 0.8
2016-Nov-28 10:32N 24°27' E 118°00'0 0.0
2016-Nov-28 09:31N 24°27' E 118°00'0 0.0
2016-Nov-28 08:31N 24°27' E 118°00'0 0.1
2016-Nov-28 07:28N 24°27' E 118°00'0 0.1
2016-Nov-28 06:33N 24°27' E 118°00'0 0.0
2016-Nov-28 05:33N 24°27' E 118°00'0 0.0
2016-Nov-28 04:32N 24°27' E 118°00'0 0.0
2016-Nov-28 03:32N 24°27' E 118°00'3 3.4
2016-Nov-28 02:33N 24°26' E 118°04'1111.2
2016-Nov-28 01:33N 24°18' E 118°13'9 9.0
2016-Nov-28 00:33N 24°13' E 118°21'400 8.0
2016-Nov-25 22:33N 29°41' E 122°35'1313.6
2016-Nov-25 21:33N 29°44' E 122°20'1212.1
2016-Nov-25 20:33N 29°53' E 122°11'6 5.9
2016-Nov-25 19:28N 29°53' E 122°04'0 0.0
2016-Nov-25 18:33N 29°53' E 122°04'0 0.0
2016-Nov-25 17:33N 29°53' E 122°04'0 0.0
2016-Nov-25 16:30N 29°53' E 122°04'0 0.0
2016-Nov-25 15:17N 29°53' E 122°04'0 0.0
2016-Nov-25 14:17N 29°53' E 122°04'0 0.0
2016-Nov-25 13:22N 29°53' E 122°04'0 0.6
2016-Nov-25 12:34N 29°54' E 122°03'3 3.5
2016-Nov-25 11:33N 29°55' E 122°07'11 8.9
2016-Nov-25 10:16N 29°47' E 122°16'710.3
2016-Nov-25 09:33N 29°44' E 122°24'6 3.0
2016-Nov-25 07:32N 29°38' E 122°24'0 0.0
2016-Nov-25 06:32N 29°38' E 122°24'0 0.0
2016-Nov-25 05:23N 29°38' E 122°24'0 0.0
2016-Nov-25 04:31N 29°38' E 122°24'0 0.1
2016-Nov-25 03:30N 29°38' E 122°24'0 0.0
2016-Nov-25 02:21N 29°38' E 122°24'0 0.0
2016-Nov-25 01:26N 29°38' E 122°24'0 0.0
2016-Nov-25 00:20N 29°38' E 122°24'0 0.0
2016-Nov-24 23:17N 29°38' E 122°24'0 0.1
2016-Nov-24 22:28N 29°38' E 122°24'0 0.0
2016-Nov-24 21:28N 29°38' E 122°24'0 0.0
2016-Nov-24 20:12N 29°38' E 122°24'0 0.0
2016-Nov-24 19:33N 29°38' E 122°24'0 0.0
2016-Nov-24 18:17N 29°38' E 122°24'0 0.0
2016-Nov-24 17:32N 29°38' E 122°24'0 0.0
2016-Nov-24 16:32N 29°38' E 122°24'0 0.1
2016-Nov-24 15:31N 29°38' E 122°24'0 0.0
2016-Nov-24 14:31N 29°38' E 122°24'0 0.0
2016-Nov-24 13:24N 29°38' E 122°24'0 0.0
2016-Nov-24 12:30N 29°38' E 122°24'4 4.7
2016-Nov-24 11:33N 29°37' E 122°29'1514.5
2016-Nov-24 10:33N 29°46' E 122°42'  
Track history (hours):
 
Tides and Currents Weather Stations Pressure Air Temp Water Temp Dewpoint Dewpoint Depression Visibility Wind Speed Wind Dir Waves Ship Positions

MSC Nuria

Last reported at 2016-Nov-29 17:29 UTC. Time now 2016-Dec-07 16:24 UTC.
Position N 22°34' E 114°17'.

Length 275 m; draft 10 m.

Type: Ship (hazmat cat A). MMSI: 370272977.

Date/timePositionNaut miles runAvg speedWind from/ knotsBaromVisibWave heightAir tempDewpointWater temp
2016-Nov-29 17:29N 22°34' E 114°17'2 1.9
2016-Nov-29 16:29N 22°34' E 114°16'0 0.0
2016-Nov-29 15:29N 22°34' E 114°16'0 0.0
2016-Nov-29 14:29N 22°34' E 114°16'0 0.0
2016-Nov-29 13:22N 22°34' E 114°16'0 0.0
2016-Nov-29 12:28N 22°34' E 114°16'0 0.0
2016-Nov-29 11:27N 22°34' E 114°16'0 0.0
2016-Nov-29 10:33N 22°34' E 114°16'0 0.0
2016-Nov-29 09:26N 22°34' E 114°16'0 0.0
2016-Nov-29 08:32N 22°34' E 114°16'0 0.0
2016-Nov-29 07:32N 22°34' E 114°16'0 0.0
2016-Nov-29 06:31N 22°34' E 114°16'0 0.1
2016-Nov-29 05:33N 22°34' E 114°16'23015.3
2016-Nov-28 14:33N 23°52' E 118°11'2120.5
2016-Nov-28 13:33N 24°11' E 118°19'1413.7
2016-Nov-28 12:33N 24°21' E 118°09'9 8.9
2016-Nov-28 11:33N 24°26' E 118°01'1 0.8
2016-Nov-28 10:32N 24°27' E 118°00'0 0.0
2016-Nov-28 09:31N 24°27' E 118°00'0 0.0
2016-Nov-28 08:31N 24°27' E 118°00'0 0.1
2016-Nov-28 07:28N 24°27' E 118°00'0 0.1
2016-Nov-28 06:33N 24°27' E 118°00'0 0.0
2016-Nov-28 05:33N 24°27' E 118°00'0 0.0
2016-Nov-28 04:32N 24°27' E 118°00'0 0.0
2016-Nov-28 03:32N 24°27' E 118°00'3 3.4
2016-Nov-28 02:33N 24°26' E 118°04'1111.2
2016-Nov-28 01:33N 24°18' E 118°13'9 9.0
2016-Nov-28 00:33N 24°13' E 118°21'400 8.0
2016-Nov-25 22:33N 29°41' E 122°35'1313.6
2016-Nov-25 21:33N 29°44' E 122°20'1212.1
2016-Nov-25 20:33N 29°53' E 122°11'6 5.9
2016-Nov-25 19:28N 29°53' E 122°04'0 0.0
2016-Nov-25 18:33N 29°53' E 122°04'0 0.0
2016-Nov-25 17:33N 29°53' E 122°04'0 0.0
2016-Nov-25 16:30N 29°53' E 122°04'0 0.0
2016-Nov-25 15:17N 29°53' E 122°04'0 0.0
2016-Nov-25 14:17N 29°53' E 122°04'0 0.0
2016-Nov-25 13:22N 29°53' E 122°04'0 0.6
2016-Nov-25 12:34N 29°54' E 122°03'3 3.5
2016-Nov-25 11:33N 29°55' E 122°07'11 8.9
2016-Nov-25 10:16N 29°47' E 122°16'710.3
2016-Nov-25 09:33N 29°44' E 122°24'6 3.0
2016-Nov-25 07:32N 29°38' E 122°24'0 0.0
2016-Nov-25 06:32N 29°38' E 122°24'0 0.0
2016-Nov-25 05:23N 29°38' E 122°24'0 0.0
2016-Nov-25 04:31N 29°38' E 122°24'0 0.1
2016-Nov-25 03:30N 29°38' E 122°24'0 0.0
2016-Nov-25 02:21N 29°38' E 122°24'0 0.0
2016-Nov-25 01:26N 29°38' E 122°24'0 0.0
2016-Nov-25 00:20N 29°38' E 122°24'0 0.0
2016-Nov-24 23:17N 29°38' E 122°24'0 0.1
2016-Nov-24 22:28N 29°38' E 122°24'0 0.0
2016-Nov-24 21:28N 29°38' E 122°24'0 0.0
2016-Nov-24 20:12N 29°38' E 122°24'0 0.0
2016-Nov-24 19:33N 29°38' E 122°24'0 0.0
2016-Nov-24 18:17N 29°38' E 122°24'0 0.0
2016-Nov-24 17:32N 29°38' E 122°24'0 0.0
2016-Nov-24 16:32N 29°38' E 122°24'0 0.1
2016-Nov-24 15:31N 29°38' E 122°24'0 0.0
2016-Nov-24 14:31N 29°38' E 122°24'0 0.0
2016-Nov-24 13:24N 29°38' E 122°24'0 0.0
2016-Nov-24 12:30N 29°38' E 122°24'4 4.7
2016-Nov-24 11:33N 29°37' E 122°29'1514.5
2016-Nov-24 10:33N 29°46' E 122°42'  

Dump ship's entire track history